createdAt,value
2022-11-24T00:01:59.685Z,5.5
2022-11-24T00:04:04.996Z,5.6
2022-11-24T00:06:07.112Z,4.8
2022-11-24T00:10:11.285Z,4.3
2022-11-24T00:12:13.415Z,4.1
2022-11-24T00:14:15.487Z,4.6
2022-11-24T00:16:17.686Z,5.1
2022-11-24T00:18:22.994Z,4
2022-11-24T00:20:25.078Z,4.6
2022-11-24T00:22:27.183Z,5.4
2022-11-24T00:25:31.921Z,4.4
2022-11-24T00:27:34.037Z,3.6
2022-11-24T00:29:36.160Z,4
2022-11-24T00:31:41.506Z,4.8
2022-11-24T00:37:47.794Z,3.8
2022-11-24T00:39:49.926Z,3.9
2022-11-24T00:41:52.007Z,4.7
2022-11-24T00:43:54.147Z,4.2
2022-11-24T00:45:59.610Z,5.3
2022-11-24T00:48:01.562Z,3.6
2022-11-24T00:50:03.675Z,4.5
2022-11-24T00:52:05.770Z,3.6
2022-11-24T00:54:07.892Z,3.9
2022-11-24T00:58:12.137Z,5
2022-11-24T01:04:21.698Z,5.2
2022-11-24T01:06:23.807Z,5.8
2022-11-24T01:08:25.914Z,4.3
2022-11-24T01:12:30.092Z,4.4
2022-11-24T01:18:39.648Z,3.7
2022-11-24T01:19:42.316Z,4
2022-11-24T01:21:44.422Z,3.5
2022-11-24T01:23:46.560Z,5.4
2022-11-24T01:27:53.990Z,3.9
2022-11-24T01:29:56.123Z,4.2
2022-11-24T01:31:58.203Z,3.3
2022-11-24T01:34:00.350Z,3.8
2022-11-24T01:36:02.450Z,2.8
2022-11-24T01:42:13.528Z,4.3
2022-11-24T01:44:15.638Z,3.3
2022-11-24T01:46:17.742Z,4.9
2022-11-24T01:48:23.213Z,3.4
2022-11-24T01:50:21.917Z,3.3
2022-11-24T01:52:24.049Z,2.5
2022-11-24T01:54:26.159Z,3.2
2022-11-24T01:56:31.467Z,2.7
2022-11-24T01:58:33.607Z,5.2
2022-11-24T02:00:35.724Z,3.3
2022-11-24T02:02:37.850Z,2.7
2022-11-24T02:04:39.928Z,3.5
2022-11-24T02:08:44.141Z,3.4
2022-11-24T02:12:51.540Z,2.5
2022-11-24T02:14:53.644Z,3
2022-11-24T02:15:56.394Z,2.5
2022-11-24T02:17:58.466Z,3.4
2022-11-24T02:20:00.512Z,3.3
2022-11-24T02:22:02.789Z,3.1
2022-11-24T02:24:07.994Z,2.8
2022-11-24T02:26:10.072Z,3.2
2022-11-24T02:28:12.204Z,2.4
2022-11-24T02:30:14.303Z,3.9
2022-11-24T02:32:16.398Z,3.4
2022-11-24T02:34:18.511Z,2.4
2022-11-24T02:36:20.584Z,2.8
2022-11-24T02:38:25.950Z,4.4
2022-11-24T02:40:28.057Z,3
2022-11-24T02:42:30.136Z,2.9
2022-11-24T02:44:32.540Z,3.7
2022-11-24T02:46:34.463Z,2.9
2022-11-24T02:48:36.440Z,2.8
2022-11-24T02:50:38.591Z,4.2
2022-11-24T02:52:43.942Z,3.8
2022-11-24T02:54:46.002Z,1.7
2022-11-24T02:56:48.245Z,3
2022-11-24T02:58:50.204Z,4.2
2022-11-24T03:00:52.393Z,2.5
2022-11-24T03:02:54.587Z,3.1
2022-11-24T03:04:56.525Z,2.2
2022-11-24T03:07:02.006Z,4
2022-11-24T03:09:03.961Z,2.7
2022-11-24T03:11:06.076Z,2.4
2022-11-24T03:13:34.948Z,3.9
2022-11-24T03:15:37.166Z,3.3
2022-11-24T03:17:39.170Z,3.5
2022-11-24T03:19:44.510Z,2.8
2022-11-24T03:21:46.653Z,3.4
2022-11-24T03:23:48.760Z,3.2
2022-11-24T03:25:50.824Z,2.5
2022-11-24T03:27:52.964Z,3
2022-11-24T03:29:55.044Z,3.5
2022-11-24T03:31:57.182Z,3.2
2022-11-24T03:34:02.486Z,2.6
2022-11-24T03:36:04.629Z,3.5
2022-11-24T03:38:06.785Z,3.2
2022-11-24T03:40:08.817Z,2.8
2022-11-24T03:42:10.873Z,2.7
2022-11-24T03:44:12.988Z,3.5
2022-11-24T03:46:15.153Z,3.6
2022-11-24T03:48:20.578Z,3.3
2022-11-24T03:50:22.540Z,2.9
2022-11-24T03:52:24.611Z,3.2
2022-11-24T03:54:26.714Z,2.6
2022-11-24T03:56:28.819Z,3.3
2022-11-24T03:58:30.936Z,3.1
2022-11-24T04:00:33.020Z,2.9
2022-11-24T04:02:38.423Z,3.1
2022-11-24T04:04:40.457Z,3.3
2022-11-24T04:07:45.258Z,2.9
2022-11-24T04:09:47.373Z,3.5
2022-11-24T04:11:49.455Z,3
2022-11-24T04:13:51.572Z,3
2022-11-24T04:15:56.957Z,3.8
2022-11-24T04:17:59.011Z,2.7
2022-11-24T04:20:01.089Z,3.8
2022-11-24T04:22:03.216Z,3
2022-11-24T04:24:05.292Z,3.5
2022-11-24T04:26:07.394Z,2.8
2022-11-24T04:30:14.842Z,3.8
2022-11-24T04:32:16.968Z,3.9
2022-11-24T04:34:19.077Z,2
2022-11-24T04:36:21.188Z,3
2022-11-24T04:39:25.819Z,3.4
2022-11-24T04:40:25.370Z,3
2022-11-24T04:42:27.476Z,3.1
2022-11-24T04:44:33.188Z,3.2
2022-11-24T04:46:35.041Z,2.9
2022-11-24T04:48:37.046Z,3.3
2022-11-24T04:50:39.178Z,3.9
2022-11-24T04:52:41.244Z,3.7
2022-11-24T04:54:43.387Z,3.1
2022-11-24T04:56:45.457Z,3.4
2022-11-24T04:58:50.840Z,3.2
2022-11-24T05:02:55.022Z,3
2022-11-24T05:03:57.706Z,3.8
2022-11-24T05:05:59.783Z,4.2
2022-11-24T05:08:02.016Z,3.4
2022-11-24T05:10:03.987Z,4.5
2022-11-24T05:12:09.345Z,3.6
2022-11-24T05:14:11.452Z,3.8
2022-11-24T05:16:13.637Z,4
2022-11-24T05:20:17.753Z,3.9
2022-11-24T05:26:27.328Z,3.7
2022-11-24T05:28:29.398Z,4.8
2022-11-24T05:30:31.498Z,3.9
2022-11-24T05:32:33.615Z,4.6
2022-11-24T05:34:35.986Z,3.5
2022-11-24T05:36:37.830Z,3.7
2022-11-24T05:38:39.982Z,3
2022-11-24T05:40:45.309Z,3.4
2022-11-24T05:42:48.354Z,4.8
2022-11-24T05:44:49.500Z,3.1
2022-11-24T05:46:51.688Z,4.1
2022-11-24T05:48:53.709Z,2.9
2022-11-24T05:55:03.306Z,3.6
2022-11-24T05:57:05.410Z,3.4
2022-11-24T05:59:09.968Z,2.7
2022-11-24T06:00:10.184Z,3.6
2022-11-24T06:06:16.537Z,3.7
2022-11-24T06:08:25.552Z,4.2
2022-11-24T06:10:23.991Z,2.6
2022-11-24T06:12:26.120Z,4.5
2022-11-24T06:14:28.226Z,2.7
2022-11-24T06:16:30.400Z,2.9
2022-11-24T06:18:32.451Z,4.4
2022-11-24T06:22:39.936Z,3.8
2022-11-24T06:24:42.031Z,3.5
2022-11-24T06:28:46.261Z,3
2022-11-24T06:30:48.397Z,3.8
2022-11-24T06:32:50.505Z,3.9
2022-11-24T06:34:52.598Z,2.9
2022-11-24T06:36:57.974Z,2.8
2022-11-24T06:45:09.329Z,2.7
2022-11-24T06:53:18.118Z,2.4
2022-11-24T06:57:49.082Z,2.4
2022-11-24T06:59:51.230Z,2
2022-11-24T07:01:53.322Z,2.2
2022-11-24T07:03:58.691Z,2.2
2022-11-24T07:06:00.793Z,1.9
2022-11-24T07:12:07.133Z,2.3
2022-11-24T07:14:09.214Z,2.4
2022-11-24T07:16:11.371Z,1.9
2022-11-24T07:18:16.626Z,2.4
2022-11-24T07:20:18.755Z,2.6
2022-11-24T07:22:20.846Z,2.9
2022-11-24T07:24:22.972Z,3.4
2022-11-24T07:26:25.046Z,2.5
2022-11-24T07:28:27.294Z,3.1
2022-11-24T07:30:29.295Z,3.6
2022-11-24T07:32:36.159Z,4.6
2022-11-24T07:34:38.260Z,5.6
2022-11-24T07:36:40.358Z,3.9
2022-11-24T07:38:42.448Z,5.1
2022-11-24T07:40:44.573Z,4.6
2022-11-24T07:42:46.657Z,5.5
2022-11-24T07:44:48.751Z,6.1
2022-11-24T07:46:54.092Z,6.6
2022-11-24T07:48:56.179Z,5.2
2022-11-24T07:50:57.977Z,5.8
2022-11-24T07:52:00.635Z,6.2
2022-11-24T07:58:06.947Z,7.6
2022-11-24T08:04:16.457Z,9.3
2022-11-24T08:06:28.522Z,8.5
2022-11-24T08:10:22.788Z,10.1
2022-11-24T08:14:30.190Z,10.4
2022-11-24T08:16:32.378Z,11.6
2022-11-24T08:18:34.397Z,11.9
2022-11-24T08:20:36.474Z,12.6
2022-11-24T08:22:38.590Z,10.6
2022-11-24T08:24:40.690Z,11.3
2022-11-24T08:26:42.790Z,11.9
2022-11-24T08:28:48.124Z,12.6
2022-11-24T08:30:50.216Z,11.7
2022-11-24T08:32:52.304Z,12.2
2022-11-24T08:34:59.672Z,12.5
2022-11-24T08:36:56.524Z,12.3
2022-11-24T08:38:58.643Z,13.9
2022-11-24T08:41:00.735Z,12.5
2022-11-24T08:43:06.050Z,12
2022-11-24T08:45:20.420Z,12.7
2022-11-24T08:47:10.259Z,14.5
2022-11-24T08:48:12.911Z,10.7
2022-11-24T08:50:15.079Z,14.6
2022-11-24T08:52:17.107Z,12
2022-11-24T08:54:19.192Z,13.8
2022-11-24T08:58:26.634Z,13.4
2022-11-24T09:00:28.737Z,13.5
2022-11-24T09:02:30.838Z,13.3
2022-11-24T09:04:33.250Z,14.6
2022-11-24T09:06:35.014Z,13.2
2022-11-24T09:08:37.105Z,11.6
2022-11-24T09:10:42.593Z,12.4
2022-11-24T09:12:44.557Z,13
2022-11-24T09:14:46.684Z,11.5
2022-11-24T09:16:48.840Z,12.1
2022-11-24T09:18:50.874Z,9.5
2022-11-24T09:20:52.999Z,10
2022-11-24T09:22:55.092Z,10.7
2022-11-24T09:25:00.429Z,10.4
2022-11-24T09:27:02.535Z,9.8
2022-11-24T09:29:04.675Z,10.6
2022-11-24T09:31:06.906Z,8.5
2022-11-24T09:33:08.907Z,8.9
2022-11-24T09:35:11.005Z,8
2022-11-24T09:37:13.119Z,8.2
2022-11-24T09:39:18.517Z,7.7
2022-11-24T09:41:20.623Z,7.8
2022-11-24T09:43:22.752Z,8.5
2022-11-24T09:44:25.427Z,8.6
2022-11-24T09:46:27.648Z,7
2022-11-24T09:48:29.656Z,8.3
2022-11-24T09:50:31.782Z,7
2022-11-24T09:52:37.153Z,7.5
2022-11-24T09:54:39.285Z,8.2
2022-11-24T09:56:41.524Z,7.9
2022-11-24T09:58:43.548Z,8.1
2022-11-24T10:00:45.662Z,7.2
2022-11-24T10:02:47.762Z,8
2022-11-24T10:04:49.939Z,7.4
2022-11-24T10:06:55.287Z,8.6
2022-11-24T10:08:57.406Z,7.5
2022-11-24T10:10:59.519Z,6.9
2022-11-24T10:13:01.645Z,7.3
2022-11-24T10:19:08.062Z,6.9
2022-11-24T10:21:13.418Z,5.7
2022-11-24T10:25:17.679Z,6.1
2022-11-24T10:27:19.830Z,7.4
2022-11-24T10:31:24.187Z,7.1
2022-11-24T10:33:30.617Z,6.8
2022-11-24T10:35:31.528Z,5.9
2022-11-24T10:37:33.636Z,5.7
2022-11-24T10:39:36.000Z,5
2022-11-24T10:44:06.726Z,5.3
2022-11-24T10:46:08.908Z,4.5
2022-11-24T10:48:14.267Z,4
2022-11-24T10:50:16.533Z,4.8
2022-11-24T10:52:18.546Z,4.7
2022-11-24T11:00:27.089Z,4.3
2022-11-24T11:06:36.785Z,5.8
2022-11-24T11:08:38.939Z,4.2
2022-11-24T11:10:41.100Z,4.9
2022-11-24T11:12:44.637Z,4.7
2022-11-24T11:14:45.400Z,4.3
2022-11-24T11:16:50.808Z,7.2
2022-11-24T11:20:55.144Z,3.9
2022-11-24T11:22:57.296Z,3.5
2022-11-24T11:24:59.461Z,3.7
2022-11-24T11:27:01.622Z,4
2022-11-24T11:31:16.497Z,3.4
2022-11-24T11:35:13.487Z,3.6
2022-11-24T11:36:16.203Z,3.4
2022-11-24T11:38:18.361Z,3.1
2022-11-24T11:40:20.520Z,3.2
2022-11-24T11:42:53.518Z,3.3
2022-11-24T11:52:36.633Z,5.6
2022-11-24T11:54:38.769Z,4.9
2022-11-24T11:56:40.943Z,3.1
2022-11-24T11:58:46.248Z,3.1
2022-11-24T12:00:48.423Z,3.5
2022-11-24T12:02:53.737Z,2.9
2022-11-24T12:04:52.645Z,3.1
2022-11-24T12:06:54.709Z,2.7
2022-11-24T12:09:19.326Z,3.6
2022-11-24T12:10:59.077Z,4
2022-11-24T12:13:04.470Z,3
2022-11-24T12:15:10.830Z,3.4
2022-11-24T12:17:08.817Z,3.6
2022-11-24T12:19:10.971Z,4.4
2022-11-24T12:25:17.301Z,3.5
2022-11-24T12:27:23.365Z,2.7
2022-11-24T12:29:24.863Z,3.8
2022-11-24T12:31:27.144Z,2.3
2022-11-24T12:32:29.718Z,2.9
2022-11-24T12:34:31.902Z,4.4
2022-11-24T12:36:34.087Z,2.8
2022-11-24T12:38:36.247Z,3.4
2022-11-24T12:40:46.651Z,3.6
2022-11-24T12:42:43.844Z,3.3
2022-11-24T12:44:45.902Z,3.8
2022-11-24T12:46:48.154Z,5.5
2022-11-24T12:48:50.266Z,4.1
2022-11-24T12:50:52.458Z,3.9
2022-11-24T12:52:58.873Z,3.8
2022-11-24T12:54:59.950Z,3
2022-11-24T12:57:02.111Z,3.4
2022-11-24T12:59:04.159Z,3.3
2022-11-24T13:03:08.649Z,2.4
2022-11-24T13:05:10.620Z,2.2
2022-11-24T13:17:36.020Z,8.8
2022-11-24T13:23:37.418Z,3.3
2022-11-24T13:29:00.742Z,2.8
2022-11-24T13:32:48.681Z,3.4
2022-11-24T13:34:50.765Z,2.4
2022-11-24T13:36:56.165Z,4.5
2022-11-24T13:38:58.250Z,3.1
2022-11-24T13:41:26.966Z,3.2
2022-11-24T13:43:02.516Z,3.2
2022-11-24T13:45:04.582Z,3.8
2022-11-24T13:47:07.510Z,3
2022-11-24T13:49:08.738Z,3.8
2022-11-24T13:51:13.961Z,3.6
2022-11-24T13:53:16.136Z,4.1
2022-11-24T13:55:18.307Z,3
2022-11-24T13:57:20.504Z,3
2022-11-24T13:59:22.558Z,3.1
2022-11-24T14:01:24.895Z,3.9
2022-11-24T14:03:26.847Z,3.1
2022-11-24T14:05:32.027Z,3.2
2022-11-24T14:07:34.169Z,3.4
2022-11-24T14:09:36.175Z,4.3
2022-11-24T14:11:38.261Z,2
2022-11-24T14:13:40.312Z,2.9
2022-11-24T14:15:42.403Z,3.7
2022-11-24T14:17:44.489Z,3.5
2022-11-24T14:19:49.694Z,3.5
2022-11-24T14:21:51.755Z,4.5
2022-11-24T14:23:53.957Z,3.4
2022-11-24T14:26:22.675Z,3.7
2022-11-24T14:28:24.792Z,11.4
2022-11-24T14:30:26.813Z,3.5
2022-11-24T14:32:32.156Z,4.3
2022-11-24T14:34:34.612Z,3.8
2022-11-24T14:36:36.387Z,3.2
2022-11-24T14:38:38.564Z,2.4
2022-11-24T14:40:40.749Z,3.6
2022-11-24T14:42:42.826Z,3.3
2022-11-24T14:44:45.051Z,3.3
2022-11-24T14:46:50.421Z,3.4
2022-11-24T14:48:52.500Z,3.1
2022-11-24T14:50:54.656Z,3.7
2022-11-24T14:52:56.854Z,3.6
2022-11-24T14:55:17.398Z,2.9
2022-11-24T14:57:01.195Z,3.7
2022-11-24T14:59:03.369Z,3.7
2022-11-24T15:01:08.839Z,3.7
2022-11-24T15:03:10.921Z,3.6
2022-11-24T15:05:13.088Z,3.6
2022-11-24T15:07:15.310Z,4.4
2022-11-24T15:09:17.417Z,4.4
2022-11-24T15:11:19.543Z,4.9
2022-11-24T15:13:21.709Z,4.3
2022-11-24T15:15:27.075Z,4.4
2022-11-24T15:17:29.229Z,4.2
2022-11-24T15:19:31.378Z,5
2022-11-24T15:20:34.069Z,5.8
2022-11-24T15:22:36.184Z,6.1
2022-11-24T15:24:38.366Z,4.5
2022-11-24T15:26:42.163Z,4.9
2022-11-24T15:28:45.865Z,4.2
2022-11-24T15:30:48.005Z,5.5
2022-11-24T15:32:50.140Z,4.8
2022-11-24T15:34:52.270Z,8.2
2022-11-24T15:36:54.398Z,4.9
2022-11-24T15:38:56.530Z,6.1
2022-11-24T15:40:58.665Z,4.4
2022-11-24T15:43:06.575Z,9.4
2022-11-24T15:45:09.305Z,4.6
2022-11-24T15:47:08.334Z,5.9
2022-11-24T15:49:10.412Z,4.4
2022-11-24T15:51:12.546Z,6.3
2022-11-24T15:53:14.661Z,5.9
2022-11-24T15:55:16.778Z,5.1
2022-11-24T15:57:22.149Z,6.6
2022-11-24T15:59:24.320Z,6.6
2022-11-24T16:01:26.433Z,8.3
2022-11-24T16:03:46.423Z,7.4
2022-11-24T16:05:30.641Z,7.4
2022-11-24T16:07:32.846Z,7.5
2022-11-24T16:09:34.857Z,8
2022-11-24T16:11:40.228Z,8.5
2022-11-24T16:15:44.437Z,7
2022-11-24T16:16:47.144Z,8.4
2022-11-24T16:18:49.236Z,6.9
2022-11-24T16:24:58.794Z,5.8
2022-11-24T16:27:00.975Z,7.4
2022-11-24T16:29:03.050Z,6.4
2022-11-24T16:31:05.239Z,6.4
2022-11-24T16:33:07.306Z,7.1
2022-11-24T16:35:09.421Z,4.6
2022-11-24T16:37:11.566Z,5.2
2022-11-24T16:39:16.896Z,6.1
2022-11-24T16:45:23.301Z,5.7
2022-11-24T16:47:25.391Z,6.2
2022-11-24T16:49:27.508Z,5.9
2022-11-24T16:53:34.943Z,4.5
2022-11-24T16:55:37.084Z,5.5
2022-11-24T16:57:39.178Z,4.1
2022-11-24T16:59:41.285Z,6.2
2022-11-24T17:01:43.454Z,4.4
2022-11-24T17:03:45.526Z,4.4
2022-11-24T17:05:47.621Z,4.3
2022-11-24T17:07:53.041Z,3.9
2022-11-24T17:09:55.060Z,5
2022-11-24T17:11:57.205Z,4.1
2022-11-24T17:12:59.879Z,5.2
2022-11-24T17:15:31.287Z,3.6
2022-11-24T17:17:04.145Z,4.5
2022-11-24T17:19:06.219Z,4
2022-11-24T17:21:11.534Z,5.8
2022-11-24T17:23:13.672Z,5.7
2022-11-24T17:29:20.005Z,3.8
2022-11-24T17:31:22.209Z,4.8
2022-11-24T17:33:24.219Z,4.5
2022-11-24T17:35:29.594Z,4.4
2022-11-24T17:41:35.966Z,4
2022-11-24T17:43:38.046Z,4.6
2022-11-24T17:45:40.257Z,4.3
2022-11-24T17:47:42.286Z,3.3
2022-11-24T17:49:47.656Z,3.6
2022-11-24T17:57:56.127Z,2.6
2022-11-24T17:59:58.286Z,3.6
2022-11-24T18:02:00.407Z,3.9
2022-11-24T18:04:05.729Z,5.1
2022-11-24T18:06:07.821Z,4.1
2022-11-24T18:08:09.930Z,3.7
2022-11-24T18:10:38.802Z,4.5
2022-11-24T18:12:40.907Z,3.5
2022-11-24T18:14:43.044Z,4.1
2022-11-24T18:16:48.505Z,3.3
2022-11-24T18:18:51.198Z,3.9
2022-11-24T18:23:05.665Z,4.8
2022-11-24T18:24:56.860Z,3.8
2022-11-24T18:26:58.977Z,4.1
2022-11-24T18:29:01.105Z,4.2
2022-11-24T18:31:06.457Z,5.7
2022-11-24T18:33:08.610Z,5
2022-11-24T18:35:10.705Z,4.8
2022-11-24T18:37:12.809Z,5.9
2022-11-24T18:39:14.937Z,4.2
2022-11-24T18:41:17.065Z,4.2
2022-11-24T18:43:19.175Z,3.7
2022-11-24T18:45:24.762Z,5
2022-11-24T18:49:28.775Z,4.1
2022-11-24T18:51:30.902Z,6
2022-11-24T18:55:35.132Z,3
2022-11-24T18:57:37.243Z,3.3
2022-11-24T18:59:42.606Z,4.4
2022-11-24T19:01:44.831Z,3.5
2022-11-24T19:03:48.709Z,4.4
2022-11-24T19:06:51.670Z,4.5
2022-11-24T19:08:53.776Z,3.6
2022-11-24T19:10:55.883Z,4.7
2022-11-24T19:13:01.257Z,5.1
2022-11-24T19:15:04.921Z,5.4
2022-11-24T19:17:07.086Z,4.3
2022-11-24T19:19:09.125Z,4.5
2022-11-24T19:21:11.239Z,5
2022-11-24T19:23:13.329Z,5
2022-11-24T19:25:15.459Z,3.4
2022-11-24T19:27:20.774Z,4.5
2022-11-24T19:29:22.908Z,5
2022-11-24T19:31:25.126Z,5.2
2022-11-24T19:33:27.151Z,6.3
2022-11-24T19:35:29.250Z,4.5
2022-11-24T19:37:31.328Z,4.8
2022-11-24T19:39:33.445Z,4.8
2022-11-24T19:41:38.786Z,4.3
2022-11-24T19:43:40.945Z,4
2022-11-24T19:45:43.066Z,3.9
2022-11-24T19:47:45.127Z,4.2
2022-11-24T19:49:48.216Z,4
2022-11-24T19:51:50.337Z,4.6
2022-11-24T19:53:52.437Z,4.8
2022-11-24T19:55:57.806Z,5
2022-11-24T20:00:02.168Z,4
2022-11-24T20:01:04.729Z,4.6
2022-11-24T20:03:06.749Z,3.8
2022-11-24T20:05:08.871Z,4.4
2022-11-24T20:07:11.033Z,4.9
2022-11-24T20:09:16.310Z,4.6
2022-11-24T20:11:18.403Z,3.3
2022-11-24T20:17:24.711Z,3.9
2022-11-24T20:19:26.816Z,4.1
2022-11-24T20:21:28.921Z,3.9
2022-11-24T20:23:34.261Z,4.5
2022-11-24T20:25:36.344Z,3.7
2022-11-24T20:27:38.434Z,3.3
2022-11-24T20:35:46.820Z,3.8
2022-11-24T20:39:54.246Z,3
2022-11-24T20:41:56.314Z,3
2022-11-24T20:43:58.413Z,4.6
2022-11-24T20:46:00.546Z,6.6
2022-11-24T20:48:02.608Z,3.7
2022-11-24T20:50:04.682Z,3.7
2022-11-24T20:52:10.006Z,4
2022-11-24T20:54:12.108Z,4
2022-11-24T20:56:14.172Z,4.3
2022-11-24T20:57:16.832Z,4.1
2022-11-24T20:59:18.951Z,3.3
2022-11-24T21:01:21.115Z,3.7
2022-11-24T21:03:23.115Z,5.2
2022-11-24T21:05:28.494Z,3.6
2022-11-24T21:07:30.595Z,3.6
2022-11-24T21:09:32.616Z,4.2
2022-11-24T21:11:34.709Z,3.7
2022-11-24T21:13:36.807Z,3.7
2022-11-24T21:15:39.020Z,2.3
2022-11-24T21:17:40.970Z,3.1
2022-11-24T21:19:46.296Z,4.2
2022-11-24T21:21:48.391Z,2.8
2022-11-24T21:23:50.485Z,4.4
2022-11-24T21:27:54.659Z,2.9
2022-11-24T21:29:56.772Z,3.3
2022-11-24T21:31:58.962Z,4.7
2022-11-24T21:34:04.183Z,2.5
2022-11-24T21:36:06.264Z,2.7
2022-11-24T21:38:08.403Z,3.7
2022-11-24T21:40:10.486Z,3.8
2022-11-24T21:42:12.558Z,3.2
2022-11-24T21:46:16.786Z,3.1
2022-11-24T21:50:24.175Z,3.5
2022-11-24T21:52:26.291Z,3.3
2022-11-24T21:54:55.200Z,3.5
2022-11-24T21:56:57.275Z,3
2022-11-24T21:58:59.403Z,3.7
2022-11-24T22:03:06.837Z,3
2022-11-24T22:07:11.118Z,3.3
2022-11-24T22:09:17.760Z,1.7
2022-11-24T22:13:17.368Z,2.5
2022-11-24T22:15:22.726Z,4.1
2022-11-24T22:17:24.863Z,3.5
2022-11-24T22:19:26.925Z,2.5
2022-11-24T22:21:29.062Z,3.4
2022-11-24T22:23:31.162Z,2.7
2022-11-24T22:25:33.261Z,3
2022-11-24T22:31:42.890Z,2.3
2022-11-24T22:37:49.309Z,4.2
2022-11-24T22:39:51.307Z,2.6
2022-11-24T22:41:53.430Z,4.2
2022-11-24T22:43:58.761Z,3
2022-11-24T22:46:00.919Z,2.8
2022-11-24T22:48:02.972Z,3.3
2022-11-24T22:49:05.637Z,3.4
2022-11-24T22:51:07.781Z,3.4
2022-11-24T22:53:09.878Z,2.2
2022-11-24T22:55:12.017Z,3.8
2022-11-24T22:57:17.352Z,2.4
2022-11-24T22:59:19.448Z,3.3
2022-11-24T23:01:21.561Z,2.3
2022-11-24T23:03:23.743Z,3.4
2022-11-24T23:05:25.784Z,2.9
2022-11-24T23:07:27.966Z,2.4
2022-11-24T23:13:37.461Z,3.3
2022-11-24T23:15:39.533Z,3.4
2022-11-24T23:17:41.679Z,3.1
2022-11-24T23:19:43.783Z,3.5
2022-11-24T23:23:48.007Z,2.9
2022-11-24T23:27:55.444Z,4
2022-11-24T23:29:57.570Z,2.8
2022-11-24T23:31:59.708Z,3.4
2022-11-24T23:36:03.954Z,4.1
2022-11-24T23:38:07.700Z,2.5
2022-11-24T23:42:13.487Z,3.1
2022-11-24T23:44:15.600Z,2.9
2022-11-24T23:49:22.505Z,2.3
2022-11-24T23:51:24.639Z,2.6
2022-11-24T23:53:29.978Z,3
2022-11-24T23:55:32.099Z,2.6
2022-11-24T23:59:36.345Z,3.1
